首页
METAR-TAF:

METAR-TAF

机场 :

特立尼达, 玻利维亚

纬度: 14-49S, 经度: 064-55W, 海拔: 155米

当前天气观测

该预报发布于1小时和18分钟前的17:00 UTC
风速10节,风向北转西北
温度 33°C
湿度 36%
气压 1016 hPa
能見度: 7000

METAR: SLTR 241700Z 33010KT 7000 NSC 33/16 Q1016

时间: 14:18 (18:18 UTC)

预报

该预报发布于1小时和48分钟前的16:30 UTC
预报有效从24日的 18点(UTC)到 25日的 18点(UTC)
风速10节,风向北转西北
能見度: 8000
成为
从 24日的 23点(UTC)到 25日的 02点(UTC)
风速节,风向
成为
从 25日的 12点(UTC)到 25日的 14点(UTC)
风速10节,风向北转西北

TAF: SLTR 241630Z 2418/2518 33010KT 8000 NSC TX36/2419Z TN19/2511Z BECMG 2423/2502 00000KT BECMG 2512/2514 33010KT

超过4000个机场的气象观测和天气预报(METAR&TAF报告)。

可查询的气象台以黄色和红色小点在地图上表示。

将鼠标移到小点上方,可查看气象台名称。

然后点击查看天气观测和预报。

如需切换地图:点击带黑十字的绿色按钮放大地图;点击带横线的绿色按钮缩小地图;或者点击绿色箭头查看邻近地区的地图。


METAR-TAF: